Flight Track Log - Related Links

Times and Time Zones

All times are in EDT time to prevent confusion due to time zone crossing. See the PDT4207 flight status page for this flight to view local times or setup timezone preferences in your user account.

Time Position Orientation Groundspeed Altitude Reporting Facility
EDT Latitude Longitude Course Direction KTS MPH feet Rate Location/Type
Mon 09:35:03 PM 39.9000 -75.2333 351° North 113 130 700  Level Philadelphia TRACON
Mon 09:36:16 PM 39.9333 -75.2667 323° Northwest 164 189 2,100 1,038 Climbing Philadelphia TRACON
Mon 09:37:16 PM 39.9833 -75.2667 360° North 175 201 3,000 474 Climbing Philadelphia TRACON
Mon 09:38:00 PM 40.0926 -75.3083 348° North  Level Estimated
Mon 09:38:10 PM 40.0333 -75.2833 346° North 222 255 3,000  Level Philadelphia TRACON
Mon 09:39:00 PM 40.1484 -75.3200 351° North  Level FlightAware Approximate
Mon 09:39:10 PM 40.1000 -75.3000 349° North 226 260 3,000  Level Philadelphia TRACON
Mon 09:40:00 PM 40.2043 -75.3317 351° North  Level FlightAware Approximate
Mon 09:41:00 PM 40.2020 -75.3242 350° North  Level FlightAware Approximate
Mon 09:48:00 PM 40.5916 -75.4187 349° North  Level FlightAware Approximate
Mon 09:49:00 PM 40.6472 -75.4326 349° North  Level FlightAware Approximate
Mon 09:50:00 PM 40.7028 -75.4465 349° North  Level FlightAware Approximate
Mon 09:51:00 PM 40.7591 -75.4500 North  Level FlightAware Approximate
Mon 09:52:00 PM 40.8157 -75.4500 North  Level FlightAware Approximate
Mon 09:53:00 PM 40.8723 -75.4500 North  Level FlightAware Approximate
Mon 09:54:00 PM 40.9288 -75.4500 North  Level FlightAware Approximate
Mon 09:55:00 PM 40.9854 -75.4500 North  Level FlightAware Approximate
Mon 09:56:00 PM 41.0420 -75.4507 357° North  Level FlightAware Approximate
Mon 09:57:00 PM 41.0984 -75.4550 357° North  Level FlightAware Approximate
Mon 09:58:00 PM 41.1549 -75.4593 357° North  Level FlightAware Approximate
Mon 09:59:00 PM 41.2114 -75.4637 357° North  Level FlightAware Approximate
Mon 10:00:00 PM 41.2679 -75.4667 North  Level FlightAware Approximate
Mon 10:01:00 PM 41.3245 -75.4667 North  Level FlightAware Approximate
Mon 10:02:00 PM 41.3811 -75.4667 North  Level FlightAware Approximate
Mon 10:03:00 PM 41.4376 -75.4667 North  Level FlightAware Approximate
Mon 10:04:00 PM 41.4888 -75.4886 323° Northwest  Level FlightAware Approximate
Mon 10:05:00 PM 41.5341 -75.5339 323° Northwest  Level FlightAware Approximate
Mon 10:06:00 PM 41.5794 -75.5791 323° Northwest  Level FlightAware Approximate
Mon 10:07:00 PM 41.6247 -75.6245 323° Northwest  Level FlightAware Approximate
Mon 10:08:00 PM 41.6700 -75.6698 323° Northwest  Level FlightAware Approximate
Mon 10:09:00 PM 41.7152 -75.7152 323° Northwest  Level FlightAware Approximate
Mon 10:10:00 PM 41.7616 -75.7588 325° Northwest  Level FlightAware Approximate
Mon 10:11:00 PM 41.8079 -75.8023 325° Northwest  Level FlightAware Approximate
Mon 10:12:00 PM 41.8543 -75.8458 325° Northwest  Level FlightAware Approximate
Mon 10:13:00 PM 41.9006 -75.8894 325° Northwest  Level FlightAware Approximate
Mon 10:14:00 PM 41.9469 -75.9331 325° Northwest  Level FlightAware Approximate
Mon 10:15:00 PM 41.9932 -75.9769 325° Northwest  Level FlightAware Approximate

Login

Don't have an account? Register now (free) for customized features, flight alerts, and more!